Time;durP1;ratioP1;P1;durP2;ratioP2;P2;SDS_P1;SDS_P2;PMS_P1;PMS_P2;Temp;Humidity;BMP_temperature;BMP_pressure;BME280_temperature;BME280_humidity;BME280_pressure;Samples;Min_cycle;Max_cycle;Signal;HPM_P1;HPM_P2
2023/08/27 00:02:03;;;;;;;12.93;7.47;;;;;;;22.74;59.38;93809.59;5025401;28;20022;-75
2023/08/27 00:04:29;;;;;;;11.27;8.05;;;;;;;22.66;60.18;93808.03;5024075;28;20052;-74
2023/08/27 00:06:54;;;;;;;12.45;7.63;;;;;;;22.61;60.31;93811.91;5025137;28;20022;-75
2023/08/27 00:09:20;;;;;;;13.30;7.55;;;;;;;22.59;60.67;93811.53;5025247;28;20029;-75
2023/08/27 00:11:45;;;;;;;11.18;7.05;;;;;;;22.57;60.62;93811.94;5025013;28;20236;-75
2023/08/27 00:14:11;;;;;;;12.82;7.53;;;;;;;22.57;60.25;93811.16;5024876;28;20101;-75
2023/08/27 00:16:36;;;;;;;12.95;8.00;;;;;;;22.52;60.02;93815.03;5024574;28;20223;-75
2023/08/27 00:19:03;;;;;;;13.88;7.80;;;;;;;22.54;59.83;93806.50;5025167;28;20018;-75
2023/08/27 00:21:29;;;;;;;10.98;7.13;;;;;;;22.54;60.03;93798.34;5024954;28;20340;-74
2023/08/27 00:23:54;;;;;;;14.88;8.02;;;;;;;22.48;60.41;93792.53;5024894;28;20036;-74
2023/08/27 00:26:20;;;;;;;12.55;8.68;;;;;;;22.49;60.18;93794.09;5024609;28;20018;-74
2023/08/27 00:28:45;;;;;;;10.95;7.30;;;;;;;22.49;60.64;93802.25;5024957;28;20038;-75
2023/08/27 00:31:11;;;;;;;12.30;7.70;;;;;;;22.54;59.89;93799.13;5023731;28;20101;-75
2023/08/27 00:33:36;;;;;;;11.15;6.95;;;;;;;22.49;59.89;93796.03;5024769;28;20018;-75
2023/08/27 00:36:02;;;;;;;16.75;8.23;;;;;;;22.37;60.08;93789.84;5024742;28;20025;-74
2023/08/27 00:38:28;;;;;;;11.30;7.53;;;;;;;22.36;60.41;93792.94;5024541;28;20079;-75
2023/08/27 00:40:53;;;;;;;12.77;7.75;;;;;;;22.30;60.60;93783.66;5024578;28;20165;-74
2023/08/27 00:43:18;;;;;;;14.60;7.13;;;;;;;22.26;60.76;93780.16;5024579;28;20033;-74
2023/08/27 00:45:44;;;;;;;10.98;7.55;;;;;;;22.24;60.82;93780.53;5024516;28;20096;-75
2023/08/27 00:48:10;;;;;;;13.88;8.05;;;;;;;22.21;60.82;93779.34;5024263;28;20033;-74
2023/08/27 00:50:36;;;;;;;14.30;7.65;;;;;;;22.22;61.12;93780.91;5024393;28;20069;-74
2023/08/27 00:53:02;;;;;;;12.80;7.90;;;;;;;22.24;60.79;93778.59;5024508;28;20096;-74
2023/08/27 00:55:28;;;;;;;12.15;7.35;;;;;;;22.24;60.46;93773.16;5024250;28;20092;-75
2023/08/27 00:57:54;;;;;;;10.57;6.97;;;;;;;22.20;60.46;93777.03;5024117;28;20258;-75
2023/08/27 01:00:20;;;;;;;10.68;7.15;;;;;;;22.16;60.53;93777.03;5024132;28;20025;-74
2023/08/27 01:02:47;;;;;;;15.25;7.70;;;;;;;22.11;60.82;93777.41;5024209;28;20089;-74
2023/08/27 01:05:14;;;;;;;12.40;6.82;;;;;;;22.04;60.86;93778.22;5024153;28;20355;-75
2023/08/27 01:07:51;;;;;;;11.48;7.40;;;;;;;21.96;61.42;93784.78;5024058;28;20014;-75
2023/08/27 01:10:26;;;;;;;11.15;6.82;;;;;;;21.87;61.85;93780.91;5024092;28;20045;-75
2023/08/27 01:13:02;;;;;;;11.45;7.40;;;;;;;21.78;61.97;93790.19;5023865;28;20048;-75
2023/08/27 01:15:28;;;;;;;11.40;7.43;;;;;;;21.67;62.58;93783.22;5023988;28;20320;-74
2023/08/27 01:17:55;;;;;;;13.13;7.35;;;;;;;21.53;63.08;93794.81;5023641;28;20037;-75
2023/08/27 01:20:22;;;;;;;12.93;7.15;;;;;;;21.48;63.05;93792.47;5023940;28;20029;-74
2023/08/27 01:22:47;;;;;;;13.25;6.82;;;;;;;21.42;63.79;93787.41;5023866;28;20346;-74
2023/08/27 01:25:18;;;;;;;12.77;6.97;;;;;;;21.39;63.36;93790.88;5023817;28;20033;-74
2023/08/27 01:27:51;;;;;;;10.75;7.00;;;;;;;21.33;63.55;93791.63;5022925;28;20240;-74
2023/08/27 01:30:59;;;;;;;10.35;7.18;;;;;;;21.35;63.90;93795.50;5023689;28;20018;-74
2023/08/27 01:33:28;;;;;;;12.00;7.10;;;;;;;21.29;63.85;93778.06;5021928;28;20034;-74
2023/08/27 01:35:55;;;;;;;11.75;6.93;;;;;;;21.28;63.80;93789.28;5021792;28;20052;-74
2023/08/27 01:38:20;;;;;;;13.07;7.57;;;;;;;21.27;63.63;93790.44;5022560;28;20349;-74
2023/08/27 01:40:46;;;;;;;10.60;6.93;;;;;;;21.22;63.91;93792.34;5023612;28;20093;-74
2023/08/27 01:43:11;;;;;;;12.30;6.55;;;;;;;21.19;64.23;93797.78;5023326;28;20248;-74
2023/08/27 01:45:37;;;;;;;10.68;7.25;;;;;;;21.15;64.35;93789.63;5022246;28;20314;-75
2023/08/27 01:48:02;;;;;;;13.48;7.68;;;;;;;21.15;65.06;93788.88;5023618;28;20014;-74
2023/08/27 01:50:28;;;;;;;13.43;7.45;;;;;;;21.13;64.97;93793.88;5023231;28;20019;-74
2023/08/27 01:52:54;;;;;;;15.85;8.55;;;;;;;21.09;65.50;93799.28;5023192;28;20208;-74
2023/08/27 01:55:19;;;;;;;20.58;7.68;;;;;;;21.09;65.65;93809.38;5023408;28;20208;-74
2023/08/27 01:57:45;;;;;;;13.05;8.02;;;;;;;21.08;66.03;93807.78;5023093;28;20018;-74
2023/08/27 02:00:11;;;;;;;14.65;8.10;;;;;;;21.09;65.92;93793.88;5023266;28;20029;-74
2023/08/27 02:02:37;;;;;;;13.07;8.27;;;;;;;21.01;66.21;93795.78;5023067;28;20018;-74
2023/08/27 02:05:04;;;;;;;14.65;9.23;;;;;;;21.00;66.23;93791.53;5023364;28;20036;-74
2023/08/27 02:07:30;;;;;;;11.90;8.27;;;;;;;20.99;66.43;93784.53;5023212;28;20014;-74
2023/08/27 02:09:56;;;;;;;15.45;7.80;;;;;;;20.99;66.35;93791.91;5023108;28;20089;-74
2023/08/27 02:12:21;;;;;;;16.85;8.48;;;;;;;21.04;66.34;93776.06;5022859;28;20034;-74
2023/08/27 02:14:47;;;;;;;13.43;8.07;;;;;;;21.10;65.93;93781.09;5023127;28;20018;-74
2023/08/27 02:17:13;;;;;;;10.43;8.00;;;;;;;21.11;65.85;93788.84;5022856;28;20026;-75
2023/08/27 02:19:38;;;;;;;10.98;8.05;;;;;;;21.15;65.78;93786.16;5023061;28;20029;-74
2023/08/27 02:22:04;;;;;;;12.07;7.30;;;;;;;21.15;65.63;93786.16;5023039;28;20022;-74
2023/08/27 02:24:29;;;;;;;13.48;8.18;;;;;;;21.11;65.76;93788.06;5023080;28;20064;-74
2023/08/27 02:26:54;;;;;;;11.15;7.18;;;;;;;21.08;65.73;93781.47;5021901;28;20021;-74
2023/08/27 02:29:20;;;;;;;18.55;8.07;;;;;;;21.04;65.68;93786.91;5023018;28;20098;-75
2023/08/27 02:31:46;;;;;;;15.60;8.23;;;;;;;21.04;65.98;93776.06;5022951;28;20101;-75
2023/08/27 02:34:11;;;;;;;11.30;7.32;;;;;;;21.04;66.03;93780.69;5022413;28;20029;-75
2023/08/27 02:36:36;;;;;;;15.90;7.82;;;;;;;21.03;66.25;93784.56;5021799;28;20025;-74
2023/08/27 02:39:05;;;;;;;11.85;7.55;;;;;;;21.09;65.94;93783.03;5023382;28;20313;-74
2023/08/27 02:41:30;;;;;;;11.93;7.93;;;;;;;21.02;66.39;93783.78;5026390;28;20022;-74
2023/08/27 02:43:56;;;;;;;13.32;8.02;;;;;;;21.07;66.39;93784.56;5026782;28;20018;-75
2023/08/27 02:46:21;;;;;;;12.95;7.63;;;;;;;21.11;66.17;93778.00;5026734;28;20049;-75
2023/08/27 02:48:46;;;;;;;13.27;7.95;;;;;;;21.11;66.29;93786.13;5026843;28;20030;-75
2023/08/27 02:51:12;;;;;;;12.50;7.65;;;;;;;21.12;66.52;93784.19;5026702;28;20080;-75
2023/08/27 02:53:37;;;;;;;16.33;8.82;;;;;;;21.09;66.47;93791.16;5026480;28;20255;-75
2023/08/27 02:56:03;;;;;;;13.40;8.23;;;;;;;21.05;66.86;93784.94;5026610;28;20064;-75
2023/08/27 02:58:28;;;;;;;15.50;8.20;;;;;;;21.01;67.01;93784.94;5026628;28;20295;-75
2023/08/27 03:00:55;;;;;;;17.00;8.05;;;;;;;20.95;66.92;93788.41;5026468;28;20030;-74
2023/08/27 03:03:20;;;;;;;11.23;7.35;;;;;;;20.90;66.84;93783.31;5026435;28;20028;-75
2023/08/27 03:05:46;;;;;;;13.75;8.80;;;;;;;20.92;66.92;93779.06;5026195;28;20320;-74
2023/08/27 03:08:11;;;;;;;14.60;8.13;;;;;;;20.90;67.28;93786.03;5026252;28;20034;-75
2023/08/27 03:10:36;;;;;;;13.23;7.78;;;;;;;20.81;67.30;93776.31;5026354;28;20030;-75
2023/08/27 03:13:02;;;;;;;12.07;7.60;;;;;;;20.80;67.13;93782.91;5025102;28;20259;-75
2023/08/27 03:15:28;;;;;;;14.70;8.30;;;;;;;20.79;66.99;93783.28;5026119;28;20381;-75
2023/08/27 03:17:53;;;;;;;14.90;7.50;;;;;;;20.79;66.86;93780.56;5026133;28;20042;-74
2023/08/27 03:20:18;;;;;;;11.57;7.55;;;;;;;20.79;66.85;93780.56;5026059;28;20026;-74
2023/08/27 03:22:44;;;;;;;12.05;8.30;;;;;;;20.78;66.14;93779.00;5026062;28;20068;-74
2023/08/27 03:25:09;;;;;;;14.60;7.38;;;;;;;20.74;65.92;93787.13;5026116;28;20026;-74
2023/08/27 03:27:35;;;;;;;12.82;8.13;;;;;;;20.70;66.10;93782.84;5025775;28;20324;-74
2023/08/27 03:30:04;;;;;;;14.32;7.43;;;;;;;20.65;66.31;93794.81;5025905;28;20026;-74
2023/08/27 03:32:30;;;;;;;12.48;7.57;;;;;;;20.58;66.72;93790.13;5024857;28;20105;-74
2023/08/27 03:34:55;;;;;;;13.75;7.47;;;;;;;20.51;67.39;93792.00;5025735;28;20028;-75
2023/08/27 03:37:21;;;;;;;12.00;7.75;;;;;;;20.44;67.76;93798.91;5025695;28;20032;-75
2023/08/27 03:39:47;;;;;;;11.20;7.78;;;;;;;20.44;67.99;93792.72;5025710;28;20355;-75
2023/08/27 03:42:12;;;;;;;14.25;8.73;;;;;;;20.47;67.74;93791.19;5024536;28;20132;-74
2023/08/27 03:44:38;;;;;;;13.18;7.53;;;;;;;20.46;67.69;93793.13;5025681;28;20018;-74
2023/08/27 03:47:04;;;;;;;12.00;8.98;;;;;;;20.43;68.15;93791.97;5024554;28;20029;-74
2023/08/27 03:49:29;;;;;;;16.80;8.65;;;;;;;20.38;68.40;93799.66;5024438;28;20096;-74
2023/08/27 03:51:55;;;;;;;13.75;8.32;;;;;;;20.38;68.48;93799.66;5024613;28;20028;-74
2023/08/27 03:54:20;;;;;;;18.23;8.65;;;;;;;20.44;68.66;93798.91;5025564;28;20017;-75
2023/08/27 03:56:46;;;;;;;16.15;8.77;;;;;;;20.45;68.75;93805.09;5024130;28;20029;-75
2023/08/27 03:59:11;;;;;;;14.68;8.40;;;;;;;20.42;69.02;93812.06;5025471;28;20033;-74
2023/08/27 04:01:36;;;;;;;14.80;8.40;;;;;;;20.45;69.19;93810.50;5025426;28;20321;-74
2023/08/27 04:04:03;;;;;;;16.30;9.20;;;;;;;20.44;68.92;93812.44;5025468;28;20028;-74
2023/08/27 04:06:28;;;;;;;14.48;8.63;;;;;;;20.42;69.26;93805.88;5025138;28;20034;-74
2023/08/27 04:08:54;;;;;;;18.77;8.35;;;;;;;20.40;69.29;93819.78;5025373;28;20038;-74
2023/08/27 04:11:19;;;;;;;15.25;8.15;;;;;;;20.46;69.44;93812.09;5025095;28;20049;-74
2023/08/27 04:13:45;;;;;;;16.85;8.35;;;;;;;20.50;68.99;93822.94;5025187;28;20021;-74
2023/08/27 04:16:11;;;;;;;14.18;8.77;;;;;;;20.53;68.96;93828.34;5024995;28;20029;-74
2023/08/27 04:18:37;;;;;;;19.58;9.38;;;;;;;20.58;68.53;93828.06;5024790;28;20033;-74
2023/08/27 04:21:03;;;;;;;14.55;8.80;;;;;;;20.62;68.39;93826.13;5025181;28;20130;-74
2023/08/27 04:23:29;;;;;;;14.27;9.10;;;;;;;20.63;67.86;93822.25;5023831;28;20334;-74
2023/08/27 04:25:55;;;;;;;19.63;10.68;;;;;;;20.64;68.45;93831.19;5024901;28;20034;-74
2023/08/27 04:28:21;;;;;;;15.18;9.30;;;;;;;20.63;68.31;93827.69;5024799;28;20022;-74
2023/08/27 04:30:48;;;;;;;15.57;8.98;;;;;;;20.68;68.37;93828.47;5024710;28;20025;-74
2023/08/27 04:33:14;;;;;;;13.48;8.73;;;;;;;20.73;68.31;93826.19;5024744;28;20025;-74
2023/08/27 04:35:39;;;;;;;15.98;8.95;;;;;;;20.76;68.38;93819.25;5024665;28;20227;-74
2023/08/27 04:38:06;;;;;;;14.30;8.52;;;;;;;20.77;68.33;93810.75;5024610;28;20048;-75
2023/08/27 04:40:31;;;;;;;17.58;8.57;;;;;;;20.88;68.34;93818.91;5024696;28;20064;-75
2023/08/27 04:42:58;;;;;;;14.70;9.27;;;;;;;20.92;68.18;93811.59;5024473;28;20017;-75
2023/08/27 04:45:23;;;;;;;17.95;9.27;;;;;;;20.94;67.90;93814.69;5024642;28;20256;-74
2023/08/27 04:47:49;;;;;;;18.20;9.20;;;;;;;21.00;67.95;93810.50;5024439;28;20040;-74
2023/08/27 04:50:14;;;;;;;24.88;10.18;;;;;;;21.11;67.82;93809.75;5024325;28;20062;-74
2023/08/27 04:52:39;;;;;;;14.18;9.85;;;;;;;21.18;66.94;93812.47;5024241;28;20201;-74
2023/08/27 04:55:06;;;;;;;15.65;8.77;;;;;;;21.21;66.76;93822.56;5024448;28;20025;-74
2023/08/27 04:57:33;;;;;;;21.92;9.48;;;;;;;21.23;66.42;93825.69;5024337;28;20070;-74
2023/08/27 04:59:58;;;;;;;12.20;8.65;;;;;;;21.28;66.11;93828.00;5024278;28;20017;-74
2023/08/27 05:02:23;;;;;;;19.55;10.77;;;;;;;21.32;66.35;93830.75;5023833;28;20029;-74
2023/08/27 05:04:50;;;;;;;25.38;9.25;;;;;;;21.34;67.00;93833.84;5024157;28;20320;-74
2023/08/27 05:07:16;;;;;;;16.92;9.85;;;;;;;21.41;66.76;93837.38;5024117;28;20014;-74
2023/08/27 05:09:42;;;;;;;14.35;10.05;;;;;;;21.44;67.00;93833.91;5024208;28;20021;-74
2023/08/27 05:12:07;;;;;;;17.60;9.68;;;;;;;21.47;67.02;93835.06;5023992;28;20068;-74
2023/08/27 05:14:33;;;;;;;25.10;9.88;;;;;;;21.49;67.02;93837.41;5023933;28;20018;-74
2023/08/27 05:16:58;;;;;;;15.30;9.80;;;;;;;21.47;66.61;93834.28;5023767;28;20037;-74
2023/08/27 05:19:23;;;;;;;15.77;10.05;;;;;;;21.51;66.68;93835.09;5023937;28;20034;-74
2023/08/27 05:21:49;;;;;;;24.17;10.35;;;;;;;21.60;66.35;93832.78;5023874;28;20104;-74
2023/08/27 05:24:14;;;;;;;17.65;9.90;;;;;;;21.62;66.44;93830.47;5023749;28;20049;-74
2023/08/27 05:26:40;;;;;;;14.80;9.65;;;;;;;21.67;65.77;93830.09;5023578;28;20025;-74
2023/08/27 05:29:05;;;;;;;17.52;9.85;;;;;;;21.70;64.95;93834.00;5023745;28;20030;-75
2023/08/27 05:31:31;;;;;;;12.45;8.68;;;;;;;21.73;64.72;93838.63;5024039;28;20026;-75
2023/08/27 05:33:56;;;;;;;19.02;9.18;;;;;;;21.73;64.47;93833.97;5023493;28;20026;-75
2023/08/27 05:36:22;;;;;;;15.57;8.77;;;;;;;21.78;63.91;93833.59;5023305;28;20053;-74
2023/08/27 05:38:48;;;;;;;13.38;9.07;;;;;;;21.87;63.74;93843.31;5023506;28;20026;-74
2023/08/27 05:41:13;;;;;;;15.25;8.90;;;;;;;21.91;63.94;93849.53;5023455;28;20029;-74
2023/08/27 05:43:41;;;;;;;16.63;9.10;;;;;;;21.93;63.49;93847.19;5023371;28;20324;-74
2023/08/27 05:46:06;;;;;;;12.05;9.10;;;;;;;21.97;63.47;93843.31;5022337;28;20025;-75
2023/08/27 05:48:32;;;;;;;17.85;8.82;;;;;;;22.04;63.51;93839.81;5023476;28;20255;-75
2023/08/27 05:51:00;;;;;;;12.70;9.10;;;;;;;22.02;63.60;93839.44;5023231;28;20018;-75
2023/08/27 05:53:26;;;;;;;16.88;9.48;;;;;;;22.08;63.56;93837.91;5023329;28;20068;-75
2023/08/27 05:55:51;;;;;;;18.45;8.95;;;;;;;22.15;63.57;93829.78;5023009;28;20093;-75
2023/08/27 05:58:16;;;;;;;14.00;10.10;;;;;;;22.22;63.61;93827.03;5023168;28;20026;-75
2023/08/27 06:00:42;;;;;;;17.23;8.90;;;;;;;22.23;62.49;93828.63;5022056;28;20252;-75
2023/08/27 06:03:07;;;;;;;15.95;8.98;;;;;;;22.27;62.37;93834.06;5023027;28;20383;-74
2023/08/27 06:05:33;;;;;;;14.45;9.18;;;;;;;22.32;61.78;93822.03;5023395;28;20193;-74
2023/08/27 06:08:03;;;;;;;15.45;8.98;;;;;;;22.42;61.84;93827.47;5023087;28;20022;-74
2023/08/27 06:10:29;;;;;;;15.43;8.68;;;;;;;22.46;61.73;93834.84;5022978;28;20022;-73
2023/08/27 06:12:56;;;;;;;16.80;8.93;;;;;;;22.53;61.12;93829.38;5022773;28;20101;-74
2023/08/27 06:15:22;;;;;;;16.15;8.95;;;;;;;22.61;61.27;93828.22;5022862;28;20029;-74
2023/08/27 06:17:47;;;;;;;21.38;9.25;;;;;;;22.72;60.98;93820.06;5022893;28;20235;-75
2023/08/27 06:20:12;;;;;;;18.65;9.73;;;;;;;22.81;60.36;93814.97;5021851;28;20022;-75
2023/08/27 06:22:38;;;;;;;15.75;8.77;;;;;;;22.94;60.33;93818.03;5023139;28;20021;-75
2023/08/27 06:25:04;;;;;;;15.70;8.20;;;;;;;23.07;59.37;93818.44;5023316;28;20026;-75
2023/08/27 06:27:29;;;;;;;17.95;8.30;;;;;;;23.18;58.49;93811.81;5022780;28;20327;-75
2023/08/27 06:29:55;;;;;;;14.23;8.38;;;;;;;23.23;58.43;93807.91;5022858;28;20283;-75
2023/08/27 06:32:20;;;;;;;11.95;8.30;;;;;;;23.33;58.30;93817.19;5022899;28;20089;-75
2023/08/27 06:34:45;;;;;;;17.67;8.00;;;;;;;23.35;58.30;93814.84;5022817;28;20129;-75
2023/08/27 06:37:11;;;;;;;15.65;9.90;;;;;;;23.44;57.65;93817.91;5022653;28;20379;-76
2023/08/27 06:39:36;;;;;;;16.70;8.77;;;;;;;23.56;57.33;93814.72;5022971;28;20034;-75
2023/08/27 06:42:02;;;;;;;15.13;8.07;;;;;;;23.65;57.14;93822.47;5022919;28;20113;-75
2023/08/27 06:44:28;;;;;;;19.27;7.57;;;;;;;23.72;56.54;93814.25;5022905;28;20029;-75
2023/08/27 06:46:54;;;;;;;13.88;8.07;;;;;;;23.74;56.60;93816.59;5022565;28;20037;-75
2023/08/27 06:49:19;;;;;;;22.08;7.97;;;;;;;23.83;56.76;93816.94;5022493;28;20068;-75
2023/08/27 06:51:45;;;;;;;17.98;7.90;;;;;;;23.91;56.62;93812.22;5022658;28;20032;-75
2023/08/27 06:54:11;;;;;;;13.88;7.45;;;;;;;24.05;55.88;93819.53;5022469;28;20330;-75
2023/08/27 06:56:36;;;;;;;17.30;8.13;;;;;;;24.17;55.41;93813.59;5022222;28;20042;-75
2023/08/27 06:59:02;;;;;;;16.10;7.90;;;;;;;24.16;55.74;93812.03;5022691;28;20033;-75
2023/08/27 07:01:27;;;;;;;14.40;7.43;;;;;;;24.21;55.58;93815.09;5022588;28;20037;-75
2023/08/27 07:03:53;;;;;;;14.45;7.47;;;;;;;24.35;55.41;93808.00;5022458;28;20232;-75
2023/08/27 07:06:19;;;;;;;13.23;7.55;;;;;;;24.43;54.83;93818.44;5022296;28;20021;-75
2023/08/27 07:08:45;;;;;;;18.15;8.27;;;;;;;24.58;54.20;93818.34;5022438;28;20029;-74
2023/08/27 07:11:11;;;;;;;10.77;7.22;;;;;;;24.72;53.53;93826.38;5022241;28;20360;-74
2023/08/27 07:13:37;;;;;;;10.32;7.05;;;;;;;24.78;53.15;93811.13;5022466;28;20022;-78
2023/08/27 07:16:03;;;;;;;12.55;6.30;;;;;;;24.80;51.85;93827.09;5022546;28;20048;-78
2023/08/27 07:18:29;;;;;;;18.27;7.53;;;;;;;24.82;52.38;93824.72;5022514;28;20097;-78
2023/08/27 07:20:54;;;;;;;14.60;8.02;;;;;;;24.80;52.35;93829.81;5022391;28;20026;-78
2023/08/27 07:23:20;;;;;;;13.45;7.63;;;;;;;24.88;52.57;93825.06;5022219;28;20029;-78
2023/08/27 07:25:45;;;;;;;13.35;7.55;;;;;;;24.96;52.54;93826.53;5023311;28;20026;-76
2023/08/27 07:28:11;;;;;;;17.20;8.48;;;;;;;25.05;52.50;93826.03;5025852;28;20018;-76
2023/08/27 07:30:37;;;;;;;17.17;7.18;;;;;;;25.08;52.62;93830.69;5024486;28;20022;-76
2023/08/27 07:33:02;;;;;;;15.15;7.25;;;;;;;25.15;51.83;93833.34;5025891;28;20022;-77
2023/08/27 07:35:29;;;;;;;10.02;7.47;;;;;;;25.15;51.58;93830.59;5025833;28;20018;-77
2023/08/27 07:37:55;;;;;;;23.05;6.75;;;;;;;25.23;51.71;93838.31;5025816;28;20034;-78
2023/08/27 07:40:20;;;;;;;13.35;6.68;;;;;;;25.26;51.42;93841.41;5025452;28;20335;-77
2023/08/27 07:42:45;;;;;;;13.98;6.93;;;;;;;25.33;51.43;93825.75;5024410;28;20034;-76
2023/08/27 07:45:11;;;;;;;13.10;8.00;;;;;;;25.41;51.74;93824.47;5025593;28;20026;-76
2023/08/27 07:47:37;;;;;;;13.70;6.80;;;;;;;25.50;51.02;93823.19;5024480;28;20316;-76
2023/08/27 07:50:06;;;;;;;17.05;7.38;;;;;;;25.52;50.70;93820.84;5025566;28;20060;-76
2023/08/27 07:52:31;;;;;;;15.57;7.88;;;;;;;25.51;50.41;93816.56;5025811;28;20034;-76
2023/08/27 07:54:57;;;;;;;14.57;6.95;;;;;;;25.49;50.79;93825.16;5024275;28;20048;-77
2023/08/27 07:57:23;;;;;;;13.80;7.35;;;;;;;25.59;50.93;93818.03;5025301;28;20068;-77
2023/08/27 07:59:51;;;;;;;13.02;7.78;;;;;;;25.70;50.15;93815.91;5025130;28;20029;-76
2023/08/27 08:02:16;;;;;;;11.73;6.70;;;;;;;25.74;50.61;93802.22;5025110;28;20068;-76
2023/08/27 08:04:42;;;;;;;9.88;6.30;;;;;;;25.83;50.26;93803.25;5024419;28;20026;-76
2023/08/27 08:07:09;;;;;;;19.23;7.65;;;;;;;25.95;50.27;93814.81;5025062;28;20025;-77
2023/08/27 08:09:35;;;;;;;13.73;7.05;;;;;;;26.03;49.67;93810.78;5025259;28;20235;-76
2023/08/27 08:12:00;;;;;;;9.80;6.43;;;;;;;26.11;48.88;93801.31;5025087;28;20054;-76
2023/08/27 08:14:25;;;;;;;11.50;6.93;;;;;;;26.19;48.94;93801.97;5025124;28;20236;-74
2023/08/27 08:16:53;;;;;;;13.23;6.78;;;;;;;26.32;49.61;93799.44;5024772;28;20346;-74
2023/08/27 08:19:19;;;;;;;15.02;6.85;;;;;;;26.42;49.07;93798.50;5025180;28;20033;-75
2023/08/27 08:21:44;;;;;;;10.85;6.20;;;;;;;26.59;47.86;93797.44;5024848;28;20068;-76
2023/08/27 08:24:10;;;;;;;14.95;7.05;;;;;;;26.71;47.12;93792.56;5024769;28;20227;-75
2023/08/27 08:26:35;;;;;;;14.60;6.70;;;;;;;26.85;46.83;93789.56;5024646;28;20085;-74
2023/08/27 08:29:01;;;;;;;12.93;7.28;;;;;;;26.96;46.21;93790.13;5024867;28;20080;-77
2023/08/27 08:31:26;;;;;;;12.88;7.80;;;;;;;27.02;46.10;93784.94;5024775;28;20047;-76
2023/08/27 08:33:51;;;;;;;12.98;6.85;;;;;;;27.08;46.68;93777.78;5024442;28;20045;-77
2023/08/27 08:36:17;;;;;;;11.90;6.05;;;;;;;27.20;46.25;93779.13;5024207;28;20033;-77
2023/08/27 08:38:43;;;;;;;16.67;6.55;;;;;;;27.32;46.20;93775.00;5024489;28;20026;-77
2023/08/27 08:41:10;;;;;;;12.40;6.40;;;;;;;27.44;44.78;93776.31;5024369;28;20022;-77
2023/08/27 08:43:47;;;;;;;10.15;6.30;;;;;;;27.51;44.74;93773.44;5021880;28;20029;-76
2023/08/27 08:46:18;;;;;;;9.88;5.40;;;;;;;27.64;44.10;93768.06;5022527;28;20308;-77
2023/08/27 08:48:47;;;;;;;10.10;5.13;;;;;;;27.76;43.64;93767.41;5022669;28;20216;-77
2023/08/27 08:51:13;;;;;;;16.48;6.10;;;;;;;27.93;44.12;93770.97;5022336;28;20072;-77
2023/08/27 08:53:44;;;;;;;11.25;5.47;;;;;;;28.04;42.69;93771.50;5021824;28;20060;-77
2023/08/27 08:56:18;;;;;;;15.07;5.88;;;;;;;28.11;41.94;93768.59;5021076;28;20097;-76
2023/08/27 08:58:52;;;;;;;10.95;5.25;;;;;;;28.15;41.04;93755.59;5022454;28;20068;-77
2023/08/27 09:01:20;;;;;;;13.90;5.78;;;;;;;28.20;40.77;93757.78;5022601;28;20013;-77
2023/08/27 09:03:47;;;;;;;11.07;6.15;;;;;;;28.32;41.56;93761.06;5021621;28;20334;-77
2023/08/27 09:06:16;;;;;;;9.98;6.18;;;;;;;28.47;42.52;93755.97;5020668;28;20076;-77
2023/08/27 09:08:42;;;;;;;13.93;5.63;;;;;;;28.59;41.96;93747.06;5021745;28;20026;-77
2023/08/27 09:11:08;;;;;;;14.93;5.05;;;;;;;28.69;41.15;93753.47;5021877;28;20335;-77
2023/08/27 09:13:34;;;;;;;10.73;5.32;;;;;;;28.77;39.77;93750.09;5022276;28;20089;-77
2023/08/27 09:15:59;;;;;;;10.98;6.15;;;;;;;28.91;40.49;93754.44;5022533;28;20061;-77
2023/08/27 09:18:25;;;;;;;9.80;5.22;;;;;;;28.98;39.66;93743.28;5023054;28;20026;-76
2023/08/27 09:20:50;;;;;;;16.98;5.40;;;;;;;29.05;39.67;93739.56;5023758;28;20320;-77
2023/08/27 09:23:16;;;;;;;8.52;5.95;;;;;;;29.13;39.69;93742.91;5023890;28;20028;-77
2023/08/27 09:25:42;;;;;;;11.65;4.53;;;;;;;29.30;37.63;93743.63;5023532;28;20029;-77
2023/08/27 09:28:07;;;;;;;10.85;5.28;;;;;;;29.38;37.74;93739.44;5023590;28;20046;-77
2023/08/27 09:30:33;;;;;;;10.45;5.28;;;;;;;29.46;38.25;93735.28;5023435;28;20032;-77
2023/08/27 09:32:59;;;;;;;13.90;5.68;;;;;;;29.56;37.44;93741.66;5023666;28;20251;-77
2023/08/27 09:35:38;;;;;;;7.93;4.88;;;;;;;29.64;37.16;93723.78;5022987;28;20232;-77
2023/08/27 09:38:03;;;;;;;15.68;5.13;;;;;;;29.74;37.80;93732.94;5023507;28;20036;-77
2023/08/27 09:40:29;;;;;;;12.57;5.25;;;;;;;29.78;37.00;93728.09;5023603;28;20033;-77
2023/08/27 09:43:11;;;;;;;12.00;5.38;;;;;;;29.88;37.06;93726.19;5023374;28;20053;-77
2023/08/27 09:45:38;;;;;;;10.95;4.72;;;;;;;29.93;37.32;93723.69;5023294;28;20030;-77
2023/08/27 09:48:04;;;;;;;7.30;4.93;;;;;;;29.99;35.51;93721.16;5022799;28;20208;-77
2023/08/27 09:50:31;;;;;;;12.63;4.18;;;;;;;30.07;36.08;93727.94;5023450;28;20259;-77
2023/08/27 09:53:16;;;;;;;17.23;5.15;;;;;;;30.13;36.58;93725.41;5023349;28;20093;-77
2023/08/27 09:55:42;;;;;;;9.20;4.93;;;;;;;30.14;36.23;93711.22;5023347;28;20071;-77
2023/08/27 09:58:09;;;;;;;9.57;5.18;;;;;;;30.18;36.62;93717.34;5022021;28;20335;-77
2023/08/27 10:00:37;;;;;;;10.27;5.30;;;;;;;30.24;36.48;93708.56;5021796;28;20255;-77
2023/08/27 10:03:05;;;;;;;9.98;4.50;;;;;;;30.34;36.64;93712.97;5023235;28;20092;-77
2023/08/27 10:05:34;;;;;;;14.63;5.25;;;;;;;30.44;35.64;93717.34;5022194;28;20030;-77
2023/08/27 10:08:02;;;;;;;8.73;4.90;;;;;;;30.49;36.49;93714.03;5022160;28;20032;-77
2023/08/27 10:10:28;;;;;;;10.10;4.85;;;;;;;30.49;34.58;93716.78;5021921;28;20021;-77
2023/08/27 10:12:55;;;;;;;11.02;4.68;;;;;;;30.54;35.39;93704.44;5021655;28;20042;-77
2023/08/27 10:15:23;;;;;;;12.07;4.90;;;;;;;30.44;33.59;93703.59;5023106;28;20312;-77
2023/08/27 10:17:50;;;;;;;14.70;4.35;;;;;;;30.35;33.71;93703.53;5022957;28;20093;-77
2023/08/27 10:20:16;;;;;;;8.98;4.45;;;;;;;30.37;35.77;93701.09;5023160;28;20022;-77
2023/08/27 10:22:42;;;;;;;7.03;4.85;;;;;;;30.45;35.24;93702.41;5023084;28;20037;-77
2023/08/27 10:25:09;;;;;;;8.48;5.43;;;;;;;30.54;35.18;93691.47;5021785;28;20037;-77
2023/08/27 10:27:35;;;;;;;11.52;4.47;;;;;;;30.66;34.21;93681.63;5022714;28;20053;-77
2023/08/27 10:30:07;;;;;;;10.73;5.20;;;;;;;30.74;35.08;93684.91;5023057;28;20026;-77
2023/08/27 10:32:33;;;;;;;6.47;3.97;;;;;;;30.75;34.17;93678.16;5022998;28;20030;-77
2023/08/27 10:34:59;;;;;;;9.48;4.35;;;;;;;30.82;33.22;93685.38;5022839;28;20093;-77
2023/08/27 10:37:28;;;;;;;10.68;4.47;;;;;;;30.92;34.53;93682.31;5022771;28;20289;-77
2023/08/27 10:39:58;;;;;;;13.40;4.97;;;;;;;31.06;34.80;93689.28;5022666;28;20028;-77
2023/08/27 10:42:34;;;;;;;7.50;4.80;;;;;;;31.18;33.78;93676.63;5021701;28;20025;-77
2023/08/27 10:45:27;;;;;;;12.10;4.82;;;;;;;31.28;34.07;93672.69;5021777;28;20014;-77
2023/08/27 10:48:22;;;;;;;11.23;5.28;;;;;;;31.41;33.18;93678.13;5022343;28;20372;-77
2023/08/27 10:50:50;;;;;;;15.20;5.22;;;;;;;31.37;32.11;93675.50;5021800;28;20113;-77
2023/08/27 10:53:17;;;;;;;14.40;4.45;;;;;;;31.37;31.51;93664.50;5022759;28;20026;-77
2023/08/27 10:55:48;;;;;;;14.07;4.60;;;;;;;31.38;31.68;93657.75;5021500;28;20037;-77
2023/08/27 10:58:19;;;;;;;16.95;5.00;;;;;;;31.52;33.19;93650.97;5022446;28;20022;-77
2023/08/27 11:01:05;;;;;;;8.88;4.18;;;;;;;31.56;32.40;93659.09;5025098;28;20201;-77
2023/08/27 11:03:59;;;;;;;12.20;3.75;;;;;;;31.73;32.24;93663.16;5026369;28;20022;-77
2023/08/27 11:06:45;;;;;;;7.63;4.97;;;;;;;31.81;31.39;93654.56;5026268;28;20285;-76
2023/08/27 11:09:14;;;;;;;11.27;4.28;;;;;;;31.90;31.14;93652.63;5026033;28;20097;-77
2023/08/27 11:11:42;;;;;;;11.13;4.30;;;;;;;31.97;30.72;93659.81;5033077;28;20072;-77
2023/08/27 11:14:08;;;;;;;19.38;4.18;;;;;;;32.14;30.71;93652.06;5024349;28;20049;-77
2023/08/27 11:16:46;;;;;;;13.70;3.97;;;;;;;32.11;29.32;93648.25;5024716;28;20021;-77
2023/08/27 11:19:12;;;;;;;9.07;3.60;;;;;;;32.14;29.99;93644.56;5024851;28;20029;-77
2023/08/27 11:21:37;;;;;;;11.60;3.83;;;;;;;32.19;29.97;93645.97;5023463;28;20034;-77
2023/08/27 11:24:16;;;;;;;7.82;3.92;;;;;;;32.28;30.18;93636.91;5024935;28;20053;-77
2023/08/27 11:26:42;;;;;;;14.57;5.00;;;;;;;32.36;31.14;93629.88;5024486;28;20029;-77